sensor_id;sensor_type;location;lat;lon;timestamp;pressure;altitude;pressure_sealevel;temperature;humidity
32789;BME280;19141;48.980;8.410;2023-08-06T04:22:32;99301.81;;;14.12;100.00
32789;BME280;19141;48.980;8.410;2023-08-06T04:24:58;99297.50;;;14.11;100.00
32789;BME280;19141;48.980;8.410;2023-08-06T04:27:23;99296.22;;;14.13;100.00
32789;BME280;19141;48.980;8.410;2023-08-06T04:29:49;99292.50;;;14.15;100.00
32789;BME280;19141;48.980;8.410;2023-08-06T04:32:14;99303.22;;;14.15;100.00
32789;BME280;19141;48.980;8.410;2023-08-06T04:34:46;99302.81;;;14.18;100.00
32789;BME280;19141;48.980;8.410;2023-08-06T04:37:12;99302.81;;;14.18;100.00
32789;BME280;19141;48.980;8.410;2023-08-06T04:39:37;99296.19;;;14.20;100.00
32789;BME280;19141;48.980;8.410;2023-08-06T04:42:03;99296.63;;;14.17;100.00
32789;BME280;19141;48.980;8.410;2023-08-06T04:44:28;99298.72;;;14.15;100.00
32789;BME280;19141;48.980;8.410;2023-08-06T04:46:54;99295.81;;;14.17;100.00
32789;BME280;19141;48.980;8.410;2023-08-06T04:49:23;99297.81;;;14.21;100.00
32789;BME280;19141;48.980;8.410;2023-08-06T04:51:48;99296.41;;;14.19;100.00
32789;BME280;19141;48.980;8.410;2023-08-06T04:54:14;99286.72;;;14.18;100.00
32789;BME280;19141;48.980;8.410;2023-08-06T04:56:39;99287.78;;;14.17;100.00
32789;BME280;19141;48.980;8.410;2023-08-06T04:59:04;99294.13;;;14.22;100.00
32789;BME280;19141;48.980;8.410;2023-08-06T05:01:31;99289.34;;;14.24;100.00
32789;BME280;19141;48.980;8.410;2023-08-06T05:03:56;99296.56;;;14.24;100.00
32789;BME280;19141;48.980;8.410;2023-08-06T05:06:21;99299.84;;;14.26;100.00
32789;BME280;19141;48.980;8.410;2023-08-06T05:08:47;99301.28;;;14.28;100.00
32789;BME280;19141;48.980;8.410;2023-08-06T05:11:12;99295.47;;;14.31;100.00
32789;BME280;19141;48.980;8.410;2023-08-06T05:13:37;99297.91;;;14.33;100.00
32789;BME280;19141;48.980;8.410;2023-08-06T05:16:03;99306.34;;;14.36;100.00
32789;BME280;19141;48.980;8.410;2023-08-06T05:18:28;99305.06;;;14.39;100.00
32789;BME280;19141;48.980;8.410;2023-08-06T05:20:55;99301.81;;;14.37;100.00
32789;BME280;19141;48.980;8.410;2023-08-06T05:23:21;99310.81;;;14.43;100.00
32789;BME280;19141;48.980;8.410;2023-08-06T05:25:46;99312.22;;;14.45;100.00
32789;BME280;19141;48.980;8.410;2023-08-06T05:28:12;99308.53;;;14.46;100.00
32789;BME280;19141;48.980;8.410;2023-08-06T05:30:41;99311.22;;;14.46;100.00
32789;BME280;19141;48.980;8.410;2023-08-06T05:33:06;99315.34;;;14.49;100.00
32789;BME280;19141;48.980;8.410;2023-08-06T05:35:32;99317.56;;;14.52;100.00
32789;BME280;19141;48.980;8.410;2023-08-06T05:37:57;99315.09;;;14.50;100.00
32789;BME280;19141;48.980;8.410;2023-08-06T05:40:23;99319.00;;;14.54;100.00
32789;BME280;19141;48.980;8.410;2023-08-06T05:42:49;99326.41;;;14.52;100.00
32789;BME280;19141;48.980;8.410;2023-08-06T05:45:15;99315.47;;;14.54;100.00
32789;BME280;19141;48.980;8.410;2023-08-06T05:47:41;99322.31;;;14.50;100.00
32789;BME280;19141;48.980;8.410;2023-08-06T05:50:09;99321.50;;;14.49;100.00
32789;BME280;19141;48.980;8.410;2023-08-06T05:52:41;99327.91;;;14.48;100.00
32789;BME280;19141;48.980;8.410;2023-08-06T05:55:07;99323.41;;;14.42;100.00
32789;BME280;19141;48.980;8.410;2023-08-06T05:57:32;99328.53;;;14.44;100.00
32789;BME280;19141;48.980;8.410;2023-08-06T05:59:57;99323.66;;;14.34;100.00
32789;BME280;19141;48.980;8.410;2023-08-06T06:02:23;99327.19;;;14.34;100.00
32789;BME280;19141;48.980;8.410;2023-08-06T06:04:48;99320.78;;;14.35;100.00
32789;BME280;19141;48.980;8.410;2023-08-06T06:07:14;99319.09;;;14.41;100.00
32789;BME280;19141;48.980;8.410;2023-08-06T06:09:39;99329.13;;;14.46;100.00
32789;BME280;19141;48.980;8.410;2023-08-06T06:12:06;99323.97;;;14.51;100.00
32789;BME280;19141;48.980;8.410;2023-08-06T06:14:31;99326.56;;;14.57;100.00
32789;BME280;19141;48.980;8.410;2023-08-06T06:16:57;99330.47;;;14.61;100.00
32789;BME280;19141;48.980;8.410;2023-08-06T06:19:22;99340.38;;;14.61;100.00
32789;BME280;19141;48.980;8.410;2023-08-06T06:21:48;99331.28;;;14.62;100.00
32789;BME280;19141;48.980;8.410;2023-08-06T06:24:13;99340.31;;;14.68;100.00
32789;BME280;19141;48.980;8.410;2023-08-06T06:26:39;99336.34;;;14.70;100.00
32789;BME280;19141;48.980;8.410;2023-08-06T06:29:04;99340.22;;;14.74;100.00
32789;BME280;19141;48.980;8.410;2023-08-06T06:31:30;99348.47;;;14.73;100.00
32789;BME280;19141;48.980;8.410;2023-08-06T06:33:55;99342.44;;;14.59;100.00
32789;BME280;19141;48.980;8.410;2023-08-06T06:36:21;99349.13;;;14.50;100.00
32789;BME280;19141;48.980;8.410;2023-08-06T06:38:46;99351.22;;;14.48;100.00
32789;BME280;19141;48.980;8.410;2023-08-06T06:41:12;99368.78;;;14.37;100.00
32789;BME280;19141;48.980;8.410;2023-08-06T06:43:37;99366.91;;;14.37;100.00
32789;BME280;19141;48.980;8.410;2023-08-06T06:46:05;99362.38;;;14.38;100.00
32789;BME280;19141;48.980;8.410;2023-08-06T06:48:32;99371.41;;;14.44;100.00
32789;BME280;19141;48.980;8.410;2023-08-06T06:50:58;99352.03;;;14.48;100.00
32789;BME280;19141;48.980;8.410;2023-08-06T06:53:24;99359.84;;;14.50;100.00
32789;BME280;19141;48.980;8.410;2023-08-06T06:55:56;99359.38;;;14.53;100.00
32789;BME280;19141;48.980;8.410;2023-08-06T06:58:22;99354.47;;;14.50;100.00
32789;BME280;19141;48.980;8.410;2023-08-06T07:00:48;99351.22;;;14.48;100.00
32789;BME280;19141;48.980;8.410;2023-08-06T07:03:16;99347.84;;;14.52;100.00
32789;BME280;19141;48.980;8.410;2023-08-06T07:05:44;99342.50;;;14.52;100.00
32789;BME280;19141;48.980;8.410;2023-08-06T07:08:10;99357.84;;;14.63;100.00
32789;BME280;19141;48.980;8.410;2023-08-06T07:10:35;99357.31;;;14.55;100.00
32789;BME280;19141;48.980;8.410;2023-08-06T07:13:00;99354.66;;;14.55;100.00
32789;BME280;19141;48.980;8.410;2023-08-06T07:15:26;99357.09;;;14.56;100.00
32789;BME280;19141;48.980;8.410;2023-08-06T07:17:51;99355.47;;;14.55;100.00
32789;BME280;19141;48.980;8.410;2023-08-06T07:20:17;99349.00;;;14.63;100.00
32789;BME280;19141;48.980;8.410;2023-08-06T07:22:43;99351.91;;;14.61;100.00
32789;BME280;19141;48.980;8.410;2023-08-06T07:25:09;99356.38;;;14.68;100.00
32789;BME280;19141;48.980;8.410;2023-08-06T07:27:34;99358.59;;;14.71;100.00
32789;BME280;19141;48.980;8.410;2023-08-06T07:30:00;99372.34;;;14.81;100.00
32789;BME280;19141;48.980;8.410;2023-08-06T07:32:26;99363.25;;;14.82;100.00
32789;BME280;19141;48.980;8.410;2023-08-06T07:34:51;99360.94;;;14.67;100.00
32789;BME280;19141;48.980;8.410;2023-08-06T07:37:22;99367.31;;;14.66;100.00
32789;BME280;19141;48.980;8.410;2023-08-06T07:39:47;99374.16;;;14.62;100.00
32789;BME280;19141;48.980;8.410;2023-08-06T07:42:13;99383.91;;;14.56;100.00
32789;BME280;19141;48.980;8.410;2023-08-06T07:44:38;99384.50;;;14.58;100.00
32789;BME280;19141;48.980;8.410;2023-08-06T07:47:04;99388.28;;;14.51;100.00
32789;BME280;19141;48.980;8.410;2023-08-06T07:49:29;99385.75;;;14.56;100.00
32789;BME280;19141;48.980;8.410;2023-08-06T07:51:55;99385.19;;;14.47;100.00
32789;BME280;19141;48.980;8.410;2023-08-06T07:54:20;99388.53;;;14.43;100.00
32789;BME280;19141;48.980;8.410;2023-08-06T07:56:46;99381.72;;;14.40;100.00
32789;BME280;19141;48.980;8.410;2023-08-06T07:59:11;99381.72;;;14.40;100.00
32789;BME280;19141;48.980;8.410;2023-08-06T08:01:36;99387.06;;;14.47;100.00
32789;BME280;19141;48.980;8.410;2023-08-06T08:04:02;99389.91;;;14.52;100.00
32789;BME280;19141;48.980;8.410;2023-08-06T08:06:27;99387.25;;;14.45;100.00
32789;BME280;19141;48.980;8.410;2023-08-06T08:08:53;99387.91;;;14.40;100.00
32789;BME280;19141;48.980;8.410;2023-08-06T08:11:20;99384.69;;;14.32;100.00
32789;BME280;19141;48.980;8.410;2023-08-06T08:13:46;99384.13;;;14.23;100.00
32789;BME280;19141;48.980;8.410;2023-08-06T08:16:11;99377.84;;;14.11;100.00
32789;BME280;19141;48.980;8.410;2023-08-06T08:18:36;99381.44;;;13.98;100.00
32789;BME280;19141;48.980;8.410;2023-08-06T08:21:02;99391.28;;;14.04;100.00
32789;BME280;19141;48.980;8.410;2023-08-06T08:23:27;99363.94;;;13.96;100.00
32789;BME280;19141;48.980;8.410;2023-08-06T08:25:53;99381.19;;;14.00;100.00
32789;BME280;19141;48.980;8.410;2023-08-06T08:28:18;99377.44;;;14.07;100.00
32789;BME280;19141;48.980;8.410;2023-08-06T08:30:44;99381.09;;;14.13;100.00
32789;BME280;19141;48.980;8.410;2023-08-06T08:33:09;99380.66;;;14.23;100.00
32789;BME280;19141;48.980;8.410;2023-08-06T08:35:36;99383.91;;;14.25;100.00
32789;BME280;19141;48.980;8.410;2023-08-06T08:38:02;99389.66;;;14.28;100.00
32789;BME280;19141;48.980;8.410;2023-08-06T08:40:31;99383.44;;;14.34;100.00
32789;BME280;19141;48.980;8.410;2023-08-06T08:42:58;99381.94;;;14.38;100.00
32789;BME280;19141;48.980;8.410;2023-08-06T08:45:26;99385.63;;;14.44;100.00
32789;BME280;19141;48.980;8.410;2023-08-06T08:47:52;99392.34;;;14.53;100.00
32789;BME280;19141;48.980;8.410;2023-08-06T08:50:17;99401.13;;;14.67;100.00
32789;BME280;19141;48.980;8.410;2023-08-06T08:52:44;99407.50;;;14.66;100.00
32789;BME280;19141;48.980;8.410;2023-08-06T08:55:12;99407.72;;;14.64;100.00
32789;BME280;19141;48.980;8.410;2023-08-06T08:57:39;99409.19;;;14.60;100.00
32789;BME280;19141;48.980;8.410;2023-08-06T09:00:05;99404.63;;;14.68;100.00
32789;BME280;19141;48.980;8.410;2023-08-06T09:02:33;99402.38;;;14.64;100.00
32789;BME280;19141;48.980;8.410;2023-08-06T09:05:00;99391.78;;;14.45;100.00
32789;BME280;19141;48.980;8.410;2023-08-06T09:07:29;99413.44;;;14.50;100.00
32789;BME280;19141;48.980;8.410;2023-08-06T09:09:57;99409.97;;;14.43;100.00
32789;BME280;19141;48.980;8.410;2023-08-06T09:12:24;99397.16;;;14.45;100.00
32789;BME280;19141;48.980;8.410;2023-08-06T09:14:50;99405.63;;;14.48;100.00
32789;BME280;19141;48.980;8.410;2023-08-06T09:17:16;99399.75;;;14.58;100.00
32789;BME280;19141;48.980;8.410;2023-08-06T09:19:45;99403.81;;;14.67;100.00
32789;BME280;19141;48.980;8.410;2023-08-06T09:22:13;99410.06;;;14.61;100.00
32789;BME280;19141;48.980;8.410;2023-08-06T09:24:42;99419.03;;;14.66;100.00
32789;BME280;19141;48.980;8.410;2023-08-06T09:27:12;99419.50;;;14.63;100.00
32789;BME280;19141;48.980;8.410;2023-08-06T09:29:45;99416.06;;;14.56;100.00
32789;BME280;19141;48.980;8.410;2023-08-06T09:32:12;99403.53;;;14.50;100.00
32789;BME280;19141;48.980;8.410;2023-08-06T09:34:42;99419.97;;;14.54;100.00
32789;BME280;19141;48.980;8.410;2023-08-06T09:37:11;99409.66;;;14.57;100.00
32789;BME280;19141;48.980;8.410;2023-08-06T09:39:38;99424.41;;;14.66;100.00
32789;BME280;19141;48.980;8.410;2023-08-06T09:42:03;99421.72;;;14.66;100.00
32789;BME280;19141;48.980;8.410;2023-08-06T09:44:31;99423.16;;;14.69;100.00
32789;BME280;19141;48.980;8.410;2023-08-06T09:46:58;99423.91;;;14.76;100.00
32789;BME280;19141;48.980;8.410;2023-08-06T09:51:59;99429.00;;;14.84;100.00
32789;BME280;19141;48.980;8.410;2023-08-06T09:54:27;99420.06;;;14.90;100.00
32789;BME280;19141;48.980;8.410;2023-08-06T09:56:56;99431.56;;;14.98;100.00
32789;BME280;19141;48.980;8.410;2023-08-06T09:59:25;99452.56;;;15.01;100.00
32789;BME280;19141;48.980;8.410;2023-08-06T10:01:54;99440.22;;;15.00;100.00
32789;BME280;19141;48.980;8.410;2023-08-06T10:04:20;99454.44;;;15.00;100.00
32789;BME280;19141;48.980;8.410;2023-08-06T10:06:48;99443.97;;;14.92;100.00
32789;BME280;19141;48.980;8.410;2023-08-06T10:09:14;99450.97;;;14.93;100.00
32789;BME280;19141;48.980;8.410;2023-08-06T10:11:40;99456.41;;;14.86;100.00
32789;BME280;19141;48.980;8.410;2023-08-06T10:14:33;99452.00;;;14.74;100.00
32789;BME280;19141;48.980;8.410;2023-08-06T10:17:00;99469.03;;;14.79;100.00
32789;BME280;19141;48.980;8.410;2023-08-06T10:19:27;99476.78;;;14.69;100.00
32789;BME280;19141;48.980;8.410;2023-08-06T10:24:56;99473.16;;;14.57;100.00
32789;BME280;19141;48.980;8.410;2023-08-06T10:27:28;99477.28;;;14.53;100.00
32789;BME280;19141;48.980;8.410;2023-08-06T10:29:55;99491.75;;;14.45;100.00
32789;BME280;19141;48.980;8.410;2023-08-06T10:32:20;99488.06;;;14.46;100.00
32789;BME280;19141;48.980;8.410;2023-08-06T10:35:05;99502.50;;;14.38;100.00
32789;BME280;19141;48.980;8.410;2023-08-06T10:37:37;99502.31;;;14.33;100.00
32789;BME280;19141;48.980;8.410;2023-08-06T10:40:03;99506.22;;;14.37;100.00
32789;BME280;19141;48.980;8.410;2023-08-06T10:42:32;99498.97;;;14.45;100.00
32789;BME280;19141;48.980;8.410;2023-08-06T10:45:14;99504.88;;;14.60;100.00
32789;BME280;19141;48.980;8.410;2023-08-06T10:47:40;99500.31;;;14.60;100.00
32789;BME280;19141;48.980;8.410;2023-08-06T10:50:16;99515.16;;;14.63;100.00
32789;BME280;19141;48.980;8.410;2023-08-06T10:52:46;99512.72;;;14.61;100.00
32789;BME280;19141;48.980;8.410;2023-08-06T10:55:23;99512.72;;;14.61;100.00
32789;BME280;19141;48.980;8.410;2023-08-06T10:57:49;99521.81;;;14.54;100.00
32789;BME280;19141;48.980;8.410;2023-08-06T11:00:14;99513.41;;;14.50;100.00
32789;BME280;19141;48.980;8.410;2023-08-06T11:02:40;99531.13;;;14.45;100.00
32789;BME280;19141;48.980;8.410;2023-08-06T11:05:09;99529.72;;;14.42;100.00
32789;BME280;19141;48.980;8.410;2023-08-06T11:07:35;99534.47;;;14.33;100.00
32789;BME280;19141;48.980;8.410;2023-08-06T11:10:06;99536.81;;;14.23;100.00
32789;BME280;19141;48.980;8.410;2023-08-06T11:12:32;99543.81;;;14.24;100.00
32789;BME280;19141;48.980;8.410;2023-08-06T11:14:59;99548.72;;;14.27;100.00
32789;BME280;19141;48.980;8.410;2023-08-06T11:17:25;99559.63;;;14.32;100.00
32789;BME280;19141;48.980;8.410;2023-08-06T11:19:51;99551.63;;;14.26;100.00
32789;BME280;19141;48.980;8.410;2023-08-06T11:22:17;99571.81;;;14.28;100.00
32789;BME280;19141;48.980;8.410;2023-08-06T11:24:43;99562.31;;;14.32;100.00
32789;BME280;19141;48.980;8.410;2023-08-06T11:27:13;99567.88;;;14.31;100.00
32789;BME280;19141;48.980;8.410;2023-08-06T11:29:40;99570.53;;;14.37;100.00
32789;BME280;19141;48.980;8.410;2023-08-06T11:32:06;99570.09;;;14.40;100.00
32789;BME280;19141;48.980;8.410;2023-08-06T11:34:31;99573.63;;;14.48;100.00
32789;BME280;19141;48.980;8.410;2023-08-06T11:36:57;99579.13;;;14.53;100.00
32789;BME280;19141;48.980;8.410;2023-08-06T11:39:23;99569.63;;;14.57;100.00
32789;BME280;19141;48.980;8.410;2023-08-06T11:41:48;99584.66;;;14.58;100.00
32789;BME280;19141;48.980;8.410;2023-08-06T11:44:14;99582.78;;;14.65;100.00
32789;BME280;19141;48.980;8.410;2023-08-06T11:46:57;99583.41;;;14.67;100.00
32789;BME280;19141;48.980;8.410;2023-08-06T11:49:48;99588.50;;;14.75;100.00
32789;BME280;19141;48.980;8.410;2023-08-06T11:52:19;99588.72;;;14.74;100.00
32789;BME280;19141;48.980;8.410;2023-08-06T11:55:05;99586.59;;;14.82;100.00
32789;BME280;19141;48.980;8.410;2023-08-06T11:57:33;99585.72;;;14.88;100.00
32789;BME280;19141;48.980;8.410;2023-08-06T12:02:42;99593.22;;;15.05;100.00
32789;BME280;19141;48.980;8.410;2023-08-06T12:05:12;99579.56;;;15.13;100.00
32789;BME280;19141;48.980;8.410;2023-08-06T12:07:39;99591.47;;;15.17;100.00
32789;BME280;19141;48.980;8.410;2023-08-06T12:10:06;99591.47;;;15.17;100.00
32789;BME280;19141;48.980;8.410;2023-08-06T12:12:31;99593.16;;;15.11;100.00
32789;BME280;19141;48.980;8.410;2023-08-06T12:14:56;99577.13;;;15.05;100.00
32789;BME280;19141;48.980;8.410;2023-08-06T12:17:23;99584.06;;;15.12;100.00
32789;BME280;19141;48.980;8.410;2023-08-06T12:19:49;99602.59;;;15.20;100.00
32789;BME280;19141;48.980;8.410;2023-08-06T12:22:14;99596.56;;;15.25;100.00
32789;BME280;19141;48.980;8.410;2023-08-06T12:24:41;99595.91;;;15.30;100.00
32789;BME280;19141;48.980;8.410;2023-08-06T12:27:07;99593.41;;;15.35;100.00
32789;BME280;19141;48.980;8.410;2023-08-06T12:29:32;99606.34;;;15.38;100.00
32789;BME280;19141;48.980;8.410;2023-08-06T12:31:57;99596.25;;;15.40;100.00
32789;BME280;19141;48.980;8.410;2023-08-06T12:34:23;99614.75;;;15.48;100.00
32789;BME280;19141;48.980;8.410;2023-08-06T12:36:48;99603.94;;;15.55;100.00
32789;BME280;19141;48.980;8.410;2023-08-06T12:39:13;99604.66;;;15.68;100.00
32789;BME280;19141;48.980;8.410;2023-08-06T12:41:39;99598.03;;;15.71;100.00
32789;BME280;19141;48.980;8.410;2023-08-06T12:44:04;99598.41;;;15.74;100.00
32789;BME280;19141;48.980;8.410;2023-08-06T12:46:30;99605.19;;;15.77;100.00
32789;BME280;19141;48.980;8.410;2023-08-06T12:48:56;99594.00;;;15.62;100.00
32789;BME280;19141;48.980;8.410;2023-08-06T12:51:23;99611.53;;;15.58;100.00
32789;BME280;19141;48.980;8.410;2023-08-06T12:53:49;99617.31;;;15.61;100.00
32789;BME280;19141;48.980;8.410;2023-08-06T12:56:14;99604.91;;;15.67;100.00
32789;BME280;19141;48.980;8.410;2023-08-06T12:58:39;99614.84;;;15.85;100.00
32789;BME280;19141;48.980;8.410;2023-08-06T13:01:05;99615.53;;;15.98;100.00
32789;BME280;19141;48.980;8.410;2023-08-06T13:03:30;99613.66;;;16.17;100.00
32789;BME280;19141;48.980;8.410;2023-08-06T13:05:56;99620.84;;;16.35;100.00
32789;BME280;19141;48.980;8.410;2023-08-06T13:08:23;99615.63;;;16.40;100.00
32789;BME280;19141;48.980;8.410;2023-08-06T13:10:48;99619.13;;;16.41;100.00
32789;BME280;19141;48.980;8.410;2023-08-06T13:13:13;99629.75;;;16.36;100.00
32789;BME280;19141;48.980;8.410;2023-08-06T13:15:39;99629.75;;;16.36;99.25
32789;BME280;19141;48.980;8.410;2023-08-06T13:18:04;99635.72;;;16.38;100.00
32789;BME280;19141;48.980;8.410;2023-08-06T13:20:30;99640.25;;;16.55;100.00
32789;BME280;19141;48.980;8.410;2023-08-06T13:22:58;99644.03;;;16.66;99.39
32789;BME280;19141;48.980;8.410;2023-08-06T13:25:26;99626.34;;;16.59;97.62
32789;BME280;19141;48.980;8.410;2023-08-06T13:27:52;99626.50;;;16.64;96.38
32789;BME280;19141;48.980;8.410;2023-08-06T13:30:17;99638.91;;;16.65;96.21
32789;BME280;19141;48.980;8.410;2023-08-06T13:32:43;99652.78;;;16.62;95.08
32789;BME280;19141;48.980;8.410;2023-08-06T13:35:09;99636.28;;;16.58;95.79
32789;BME280;19141;48.980;8.410;2023-08-06T13:37:35;99647.28;;;16.57;96.76
32789;BME280;19141;48.980;8.410;2023-08-06T13:40:00;99653.41;;;16.64;94.88
32789;BME280;19141;48.980;8.410;2023-08-06T13:42:25;99641.59;;;16.65;95.59
32789;BME280;19141;48.980;8.410;2023-08-06T13:44:51;99642.72;;;16.57;94.01
32789;BME280;19141;48.980;8.410;2023-08-06T13:47:16;99637.03;;;16.65;91.34
32789;BME280;19141;48.980;8.410;2023-08-06T13:49:41;99644.28;;;16.65;93.95
32789;BME280;19141;48.980;8.410;2023-08-06T13:52:07;99638.91;;;16.65;93.61
32789;BME280;19141;48.980;8.410;2023-08-06T13:54:33;99638.66;;;16.66;92.32
32789;BME280;19141;48.980;8.410;2023-08-06T13:56:58;99643.53;;;16.76;92.06
32789;BME280;19141;48.980;8.410;2023-08-06T13:59:23;99647.03;;;16.76;87.40
32789;BME280;19141;48.980;8.410;2023-08-06T14:01:50;99651.03;;;16.86;84.64
32789;BME280;19141;48.980;8.410;2023-08-06T14:04:15;99661.72;;;16.92;84.11
32789;BME280;19141;48.980;8.410;2023-08-06T14:06:41;99669.00;;;17.03;84.66
32789;BME280;19141;48.980;8.410;2023-08-06T14:09:06;99678.38;;;17.13;83.33
32789;BME280;19141;48.980;8.410;2023-08-06T14:11:33;99674.56;;;17.32;81.37
32789;BME280;19141;48.980;8.410;2023-08-06T14:13:58;99678.47;;;17.48;79.70
32789;BME280;19141;48.980;8.410;2023-08-06T14:16:25;99682.59;;;17.62;78.80
32789;BME280;19141;48.980;8.410;2023-08-06T14:18:50;99688.25;;;17.72;79.64
32789;BME280;19141;48.980;8.410;2023-08-06T14:21:16;99686.25;;;17.79;77.97
32789;BME280;19141;48.980;8.410;2023-08-06T14:23:41;99702.06;;;17.76;75.63
32789;BME280;19141;48.980;8.410;2023-08-06T14:26:07;99708.16;;;17.83;76.88
32789;BME280;19141;48.980;8.410;2023-08-06T14:28:32;99692.81;;;17.83;76.82
32789;BME280;19141;48.980;8.410;2023-08-06T14:30:58;99699.84;;;17.84;76.67
32789;BME280;19141;48.980;8.410;2023-08-06T14:33:23;99713.75;;;17.70;78.37
32789;BME280;19141;48.980;8.410;2023-08-06T14:35:49;99720.28;;;17.50;82.19
32789;BME280;19141;48.980;8.410;2023-08-06T14:38:14;99719.88;;;17.35;82.66
32789;BME280;19141;48.980;8.410;2023-08-06T14:40:40;99724.66;;;17.33;85.00
32789;BME280;19141;48.980;8.410;2023-08-06T14:43:05;99722.41;;;17.18;86.25
32789;BME280;19141;48.980;8.410;2023-08-06T14:45:31;99720.19;;;17.27;84.28
32789;BME280;19141;48.980;8.410;2023-08-06T14:47:56;99737.81;;;17.41;83.60
32789;BME280;19141;48.980;8.410;2023-08-06T14:50:22;99723.88;;;17.44;80.03
32789;BME280;19141;48.980;8.410;2023-08-06T14:52:48;99730.66;;;17.47;84.17
32789;BME280;19141;48.980;8.410;2023-08-06T14:55:26;99722.59;;;17.47;82.90
32789;BME280;19141;48.980;8.410;2023-08-06T14:57:52;99733.16;;;17.48;82.43
32789;BME280;19141;48.980;8.410;2023-08-06T15:00:19;99746.81;;;17.47;82.50
32789;BME280;19141;48.980;8.410;2023-08-06T15:02:44;99731.78;;;17.27;81.37
32789;BME280;19141;48.980;8.410;2023-08-06T15:05:10;99749.59;;;17.40;81.90
32789;BME280;19141;48.980;8.410;2023-08-06T15:07:35;99739.56;;;17.35;81.66
32789;BME280;19141;48.980;8.410;2023-08-06T15:10:02;99732.34;;;17.48;81.08
32789;BME280;19141;48.980;8.410;2023-08-06T15:12:28;99733.25;;;17.53;80.34
32789;BME280;19141;48.980;8.410;2023-08-06T15:14:53;99745.56;;;17.49;80.16
32789;BME280;19141;48.980;8.410;2023-08-06T15:17:22;99742.25;;;17.47;82.41
32789;BME280;19141;48.980;8.410;2023-08-06T15:19:47;99755.59;;;17.42;83.83
32789;BME280;19141;48.980;8.410;2023-08-06T15:22:13;99756.44;;;17.43;82.71
32789;BME280;19141;48.980;8.410;2023-08-06T15:24:38;99771.47;;;17.32;82.17
32789;BME280;19141;48.980;8.410;2023-08-06T15:27:10;99768.34;;;17.35;81.79
32789;BME280;19141;48.980;8.410;2023-08-06T15:29:37;99775.81;;;17.33;81.86
32789;BME280;19141;48.980;8.410;2023-08-06T15:32:03;99775.69;;;17.28;82.25
32789;BME280;19141;48.980;8.410;2023-08-06T15:34:28;99765.28;;;17.31;82.44
32789;BME280;19141;48.980;8.410;2023-08-06T15:36:53;99768.53;;;17.22;82.45
32789;BME280;19141;48.980;8.410;2023-08-06T15:39:20;99764.63;;;17.18;83.04
32789;BME280;19141;48.980;8.410;2023-08-06T15:41:46;99776.59;;;17.22;84.11
32789;BME280;19141;48.980;8.410;2023-08-06T15:44:11;99766.31;;;17.00;85.19
32789;BME280;19141;48.980;8.410;2023-08-06T15:46:36;99768.09;;;17.06;85.61
32789;BME280;19141;48.980;8.410;2023-08-06T15:49:02;99775.75;;;16.91;87.46
32789;BME280;19141;48.980;8.410;2023-08-06T15:51:28;99787.16;;;16.87;87.71
32789;BME280;19141;48.980;8.410;2023-08-06T15:53:53;99793.53;;;16.74;87.41
32789;BME280;19141;48.980;8.410;2023-08-06T15:56:19;99810.75;;;16.66;87.56
32789;BME280;19141;48.980;8.410;2023-08-06T15:58:44;99825.31;;;16.59;88.56
32789;BME280;19141;48.980;8.410;2023-08-06T16:01:10;99838.13;;;16.38;98.32
32789;BME280;19141;48.980;8.410;2023-08-06T16:03:35;99827.66;;;16.05;100.00
32789;BME280;19141;48.980;8.410;2023-08-06T16:06:00;99818.63;;;15.68;100.00
32789;BME280;19141;48.980;8.410;2023-08-06T16:08:26;99821.59;;;15.53;100.00
32789;BME280;19141;48.980;8.410;2023-08-06T16:10:52;99829.13;;;15.31;100.00
32789;BME280;19141;48.980;8.410;2023-08-06T16:13:17;99844.25;;;15.19;100.00
32789;BME280;19141;48.980;8.410;2023-08-06T16:15:43;99847.41;;;15.09;100.00
32789;BME280;19141;48.980;8.410;2023-08-06T16:18:08;99843.47;;;15.05;100.00
32789;BME280;19141;48.980;8.410;2023-08-06T16:20:33;99851.13;;;15.02;100.00
32789;BME280;19141;48.980;8.410;2023-08-06T16:22:59;99846.56;;;15.09;100.00
32789;BME280;19141;48.980;8.410;2023-08-06T16:25:24;99850.69;;;15.05;100.00
32789;BME280;19141;48.980;8.410;2023-08-06T16:27:50;99851.72;;;15.10;100.00
32789;BME280;19141;48.980;8.410;2023-08-06T16:30:15;99853.56;;;15.10;100.00
32789;BME280;19141;48.980;8.410;2023-08-06T16:32:42;99855.47;;;15.03;100.00
32789;BME280;19141;48.980;8.410;2023-08-06T16:35:08;99853.81;;;15.02;100.00
32789;BME280;19141;48.980;8.410;2023-08-06T16:37:37;99859.41;;;14.93;100.00
32789;BME280;19141;48.980;8.410;2023-08-06T16:40:04;99855.06;;;14.92;100.00
32789;BME280;19141;48.980;8.410;2023-08-06T16:42:30;99854.91;;;14.87;100.00
32789;BME280;19141;48.980;8.410;2023-08-06T16:44:55;99856.94;;;14.92;100.00
32789;BME280;19141;48.980;8.410;2023-08-06T16:47:21;99862.47;;;15.04;100.00
32789;BME280;19141;48.980;8.410;2023-08-06T16:49:46;99864.06;;;15.18;100.00
32789;BME280;19141;48.980;8.410;2023-08-06T16:52:12;99866.91;;;15.30;100.00
32789;BME280;19141;48.980;8.410;2023-08-06T16:54:37;99865.22;;;15.42;100.00
32789;BME280;19141;48.980;8.410;2023-08-06T16:57:03;99870.75;;;15.47;100.00
32789;BME280;19141;48.980;8.410;2023-08-06T16:59:28;99867.22;;;15.53;100.00
32789;BME280;19141;48.980;8.410;2023-08-06T17:01:53;99872.38;;;15.55;100.00
32789;BME280;19141;48.980;8.410;2023-08-06T17:04:19;99884.75;;;15.56;100.00
32789;BME280;19141;48.980;8.410;2023-08-06T17:06:44;99883.94;;;15.55;100.00
32789;BME280;19141;48.980;8.410;2023-08-06T17:09:10;99889.53;;;15.54;100.00
32789;BME280;19141;48.980;8.410;2023-08-06T17:11:37;99893.25;;;15.53;100.00
32789;BME280;19141;48.980;8.410;2023-08-06T17:14:02;99889.16;;;15.43;100.00
32789;BME280;19141;48.980;8.410;2023-08-06T17:16:28;99894.09;;;15.46;100.00
32789;BME280;19141;48.980;8.410;2023-08-06T17:18:55;99896.97;;;15.45;100.00